sensor_id;sensor_type;location;lat;lon;timestamp;pressure;altitude;pressure_sealevel;temperature;humidity
30949;BME280;17637;51.984;21.208;2023-10-09T00:01:10;101045.81;;;1.61;70.02
30949;BME280;17637;51.984;21.208;2023-10-09T00:03:45;101058.50;;;1.68;70.43
30949;BME280;17637;51.984;21.208;2023-10-09T00:06:22;101038.31;;;1.54;70.06
30949;BME280;17637;51.984;21.208;2023-10-09T00:09:10;101054.22;;;1.68;70.21
30949;BME280;17637;51.984;21.208;2023-10-09T00:11:57;101028.78;;;1.60;70.02
30949;BME280;17637;51.984;21.208;2023-10-09T00:14:30;101049.56;;;1.84;69.16
30949;BME280;17637;51.984;21.208;2023-10-09T00:17:05;101011.56;;;1.66;69.38
30949;BME280;17637;51.984;21.208;2023-10-09T00:19:53;100997.22;;;1.58;69.69
30949;BME280;17637;51.984;21.208;2023-10-09T00:22:31;101044.72;;;1.72;70.57
30949;BME280;17637;51.984;21.208;2023-10-09T00:25:09;101002.47;;;1.52;70.00
30949;BME280;17637;51.984;21.208;2023-10-09T00:27:43;101046.22;;;1.82;69.43
30949;BME280;17637;51.984;21.208;2023-10-09T00:30:17;101025.13;;;1.69;70.20
30949;BME280;17637;51.984;21.208;2023-10-09T00:32:54;101047.19;;;1.76;70.21
30949;BME280;17637;51.984;21.208;2023-10-09T00:35:36;101044.72;;;1.72;70.48
30949;BME280;17637;51.984;21.208;2023-10-09T00:38:09;101024.53;;;1.59;70.29
30949;BME280;17637;51.984;21.208;2023-10-09T00:40:55;101035.31;;;1.72;70.06
30949;BME280;17637;51.984;21.208;2023-10-09T00:43:39;101042.94;;;1.75;70.70
30949;BME280;17637;51.984;21.208;2023-10-09T00:46:18;101011.56;;;1.66;70.51
30949;BME280;17637;51.984;21.208;2023-10-09T00:48:56;101014.88;;;1.71;70.90
30949;BME280;17637;51.984;21.208;2023-10-09T00:51:30;100980.16;;;1.57;70.52
30949;BME280;17637;51.984;21.208;2023-10-09T00:54:08;100992.00;;;1.61;71.35
30949;BME280;17637;51.984;21.208;2023-10-09T00:56:47;100984.69;;;1.47;70.89
30949;BME280;17637;51.984;21.208;2023-10-09T00:59:29;101000.50;;;1.63;71.14
30949;BME280;17637;51.984;21.208;2023-10-09T01:02:02;100977.88;;;1.46;71.31
30949;BME280;17637;51.984;21.208;2023-10-09T01:04:37;101000.78;;;1.53;71.25
30949;BME280;17637;51.984;21.208;2023-10-09T01:07:12;100992.25;;;1.52;71.04
30949;BME280;17637;51.984;21.208;2023-10-09T01:09:47;100978.09;;;1.37;71.68
30949;BME280;17637;51.984;21.208;2023-10-09T01:12:22;100994.03;;;1.48;71.47
30949;BME280;17637;51.984;21.208;2023-10-09T01:14:54;100975.25;;;1.48;71.24
30949;BME280;17637;51.984;21.208;2023-10-09T01:17:31;100979.56;;;1.47;72.11
30949;BME280;17637;51.984;21.208;2023-10-09T01:20:22;100992.25;;;1.52;71.75
30949;BME280;17637;51.984;21.208;2023-10-09T01:23:01;100984.59;;;1.51;71.61
30949;BME280;17637;51.984;21.208;2023-10-09T01:25:33;100982.06;;;1.49;72.03
30949;BME280;17637;51.984;21.208;2023-10-09T01:28:14;100988.94;;;1.47;71.92
30949;BME280;17637;51.984;21.208;2023-10-09T01:30:47;100981.22;;;1.48;72.18
30949;BME280;17637;51.984;21.208;2023-10-09T01:33:19;100976.19;;;1.45;72.00
30949;BME280;17637;51.984;21.208;2023-10-09T01:35:54;100950.84;;;1.35;72.14
30949;BME280;17637;51.984;21.208;2023-10-09T01:38:30;100958.53;;;1.35;72.11
30949;BME280;17637;51.984;21.208;2023-10-09T01:41:12;100950.03;;;1.33;72.90
30949;BME280;17637;51.984;21.208;2023-10-09T01:43:47;100963.19;;;1.53;72.13
30949;BME280;17637;51.984;21.208;2023-10-09T01:46:23;100936.31;;;1.35;71.99
30949;BME280;17637;51.984;21.208;2023-10-09T01:48:54;100967.44;;;1.54;72.27
30949;BME280;17637;51.984;21.208;2023-10-09T01:51:26;100940.41;;;1.42;72.20
30949;BME280;17637;51.984;21.208;2023-10-09T01:54:05;100953.16;;;1.44;72.75
30949;BME280;17637;51.984;21.208;2023-10-09T01:56:36;100964.94;;;1.51;72.73
30949;BME280;17637;51.984;21.208;2023-10-09T01:59:10;100974.25;;;1.54;72.64
30949;BME280;17637;51.984;21.208;2023-10-09T02:01:42;100969.97;;;1.56;72.43
30949;BME280;17637;51.984;21.208;2023-10-09T02:04:19;100957.97;;;1.56;71.84
30949;BME280;17637;51.984;21.208;2023-10-09T02:06:52;100950.28;;;1.58;72.21
30949;BME280;17637;51.984;21.208;2023-10-09T02:09:24;100962.66;;;1.75;72.06
30949;BME280;17637;51.984;21.208;2023-10-09T02:12:02;100956.41;;;1.85;71.67
30949;BME280;17637;51.984;21.208;2023-10-09T02:14:34;100935.44;;;1.71;71.69
30949;BME280;17637;51.984;21.208;2023-10-09T02:17:12;100972.00;;;1.77;72.61
30949;BME280;17637;51.984;21.208;2023-10-09T02:19:51;100955.03;;;1.72;72.57
30949;BME280;17637;51.984;21.208;2023-10-09T02:22:24;100953.53;;;1.64;72.14
30949;BME280;17637;51.984;21.208;2023-10-09T02:24:58;100951.00;;;1.61;72.83
30949;BME280;17637;51.984;21.208;2023-10-09T02:27:30;100960.00;;;1.78;72.08
30949;BME280;17637;51.984;21.208;2023-10-09T02:30:24;100948.97;;;1.76;71.60
30949;BME280;17637;51.984;21.208;2023-10-09T02:32:59;100945.63;;;1.72;71.73
30949;BME280;17637;51.984;21.208;2023-10-09T02:35:40;100965.31;;;1.70;72.01
30949;BME280;17637;51.984;21.208;2023-10-09T02:38:15;100955.78;;;1.77;72.01
30949;BME280;17637;51.984;21.208;2023-10-09T02:40:52;100947.97;;;1.82;72.01
30949;BME280;17637;51.984;21.208;2023-10-09T02:43:36;100948.09;;;1.77;71.52
30949;BME280;17637;51.984;21.208;2023-10-09T02:46:18;100955.59;;;1.83;71.82
30949;BME280;17637;51.984;21.208;2023-10-09T02:48:52;100930.88;;;1.82;71.61
30949;BME280;17637;51.984;21.208;2023-10-09T02:51:25;100962.09;;;1.96;72.08
30949;BME280;17637;51.984;21.208;2023-10-09T02:54:00;100952.56;;;2.02;71.12
30949;BME280;17637;51.984;21.208;2023-10-09T02:56:39;100937.28;;;1.97;71.19
30949;BME280;17637;51.984;21.208;2023-10-09T02:59:15;100934.47;;;2.06;70.84
30949;BME280;17637;51.984;21.208;2023-10-09T03:01:47;100931.03;;;2.07;71.29
30949;BME280;17637;51.984;21.208;2023-10-09T03:04:19;100925.84;;;2.10;71.37
30949;BME280;17637;51.984;21.208;2023-10-09T03:06:51;100912.31;;;2.05;70.92
30949;BME280;17637;51.984;21.208;2023-10-09T03:09:23;100926.63;;;2.12;71.17
30949;BME280;17637;51.984;21.208;2023-10-09T03:12:01;100890.88;;;2.08;70.90
30949;BME280;17637;51.984;21.208;2023-10-09T03:14:43;100923.84;;;2.22;71.23
30949;BME280;17637;51.984;21.208;2023-10-09T03:17:15;100924.59;;;2.24;71.19
30949;BME280;17637;51.984;21.208;2023-10-09T03:19:47;100923.63;;;2.29;71.04
30949;BME280;17637;51.984;21.208;2023-10-09T03:22:20;100909.53;;;2.13;71.10
30949;BME280;17637;51.984;21.208;2023-10-09T03:24:51;100910.84;;;2.26;70.85
30949;BME280;17637;51.984;21.208;2023-10-09T03:27:24;100924.28;;;2.36;71.07
30949;BME280;17637;51.984;21.208;2023-10-09T03:29:57;100911.50;;;2.35;70.32
30949;BME280;17637;51.984;21.208;2023-10-09T03:32:28;100900.53;;;2.28;70.81
30949;BME280;17637;51.984;21.208;2023-10-09T03:35:00;100906.38;;;2.33;70.73
30949;BME280;17637;51.984;21.208;2023-10-09T03:37:34;100923.41;;;2.37;70.58
30949;BME280;17637;51.984;21.208;2023-10-09T03:40:07;100922.63;;;2.34;71.23
30949;BME280;17637;51.984;21.208;2023-10-09T03:42:39;100928.44;;;2.40;71.18
30949;BME280;17637;51.984;21.208;2023-10-09T03:45:13;100935.38;;;2.37;71.39
30949;BME280;17637;51.984;21.208;2023-10-09T03:48:11;100906.78;;;2.19;71.27
30949;BME280;17637;51.984;21.208;2023-10-09T03:50:52;100925.19;;;2.34;71.48
30949;BME280;17637;51.984;21.208;2023-10-09T03:53:43;100912.38;;;2.34;71.23
30949;BME280;17637;51.984;21.208;2023-10-09T03:56:15;100920.03;;;2.35;71.31
30949;BME280;17637;51.984;21.208;2023-10-09T03:58:49;100917.19;;;2.44;71.18
30949;BME280;17637;51.984;21.208;2023-10-09T04:01:21;100907.16;;;2.37;70.99
30949;BME280;17637;51.984;21.208;2023-10-09T04:04:12;100915.31;;;2.50;70.78
30949;BME280;17637;51.984;21.208;2023-10-09T04:06:46;100917.56;;;2.32;70.67
30949;BME280;17637;51.984;21.208;2023-10-09T04:09:18;100901.13;;;2.38;71.31
30949;BME280;17637;51.984;21.208;2023-10-09T04:11:51;100922.25;;;2.46;71.16
30949;BME280;17637;51.984;21.208;2023-10-09T04:14:42;100928.97;;;2.52;71.77
30949;BME280;17637;51.984;21.208;2023-10-09T04:17:26;100934.56;;;2.65;71.50
30949;BME280;17637;51.984;21.208;2023-10-09T04:20:02;100920.88;;;2.66;71.09
30949;BME280;17637;51.984;21.208;2023-10-09T04:22:49;100917.13;;;2.48;71.45
30949;BME280;17637;51.984;21.208;2023-10-09T04:25:32;100920.38;;;2.53;71.40
30949;BME280;17637;51.984;21.208;2023-10-09T04:28:21;100931.59;;;2.49;71.41
30949;BME280;17637;51.984;21.208;2023-10-09T04:30:53;100908.50;;;2.49;71.22
30949;BME280;17637;51.984;21.208;2023-10-09T04:33:27;100912.53;;;2.57;71.01
30949;BME280;17637;51.984;21.208;2023-10-09T04:36:04;100918.41;;;2.61;71.92
30949;BME280;17637;51.984;21.208;2023-10-09T04:38:54;100897.25;;;2.54;71.04
30949;BME280;17637;51.984;21.208;2023-10-09T04:41:35;100907.31;;;2.60;70.96
30949;BME280;17637;51.984;21.208;2023-10-09T04:44:13;100901.63;;;2.51;71.43
30949;BME280;17637;51.984;21.208;2023-10-09T04:46:52;100876.44;;;2.63;71.09
30949;BME280;17637;51.984;21.208;2023-10-09T04:49:45;100877.38;;;2.61;70.77
30949;BME280;17637;51.984;21.208;2023-10-09T04:52:20;100886.81;;;2.60;71.52
30949;BME280;17637;51.984;21.208;2023-10-09T04:55:02;100880.56;;;2.68;71.04
30949;BME280;17637;51.984;21.208;2023-10-09T04:57:47;100851.13;;;2.51;71.05
30949;BME280;17637;51.984;21.208;2023-10-09T05:00:33;100845.28;;;2.46;71.50
30949;BME280;17637;51.984;21.208;2023-10-09T05:03:05;100848.44;;;2.56;72.53
30949;BME280;17637;51.984;21.208;2023-10-09T05:05:59;100839.69;;;2.61;71.37
30949;BME280;17637;51.984;21.208;2023-10-09T05:08:31;100849.69;;;2.71;71.72
30949;BME280;17637;51.984;21.208;2023-10-09T05:11:04;100840.44;;;2.67;72.05
30949;BME280;17637;51.984;21.208;2023-10-09T05:13:36;100840.56;;;2.62;72.36
30949;BME280;17637;51.984;21.208;2023-10-09T05:16:15;100848.75;;;2.73;71.81
30949;BME280;17637;51.984;21.208;2023-10-09T05:18:51;100856.31;;;2.78;72.76
30949;BME280;17637;51.984;21.208;2023-10-09T05:21:39;100843.47;;;2.78;72.13
30949;BME280;17637;51.984;21.208;2023-10-09T05:24:13;100841.75;;;2.78;72.31
30949;BME280;17637;51.984;21.208;2023-10-09T05:26:48;100835.00;;;2.76;72.15
30949;BME280;17637;51.984;21.208;2023-10-09T05:29:23;100832.25;;;2.82;72.50
30949;BME280;17637;51.984;21.208;2023-10-09T05:32:05;100834.59;;;2.88;72.10
30949;BME280;17637;51.984;21.208;2023-10-09T05:34:46;100832.97;;;2.86;72.43
30949;BME280;17637;51.984;21.208;2023-10-09T05:37:32;100831.25;;;2.86;71.97
30949;BME280;17637;51.984;21.208;2023-10-09T05:40:06;100820.78;;;2.92;71.71
30949;BME280;17637;51.984;21.208;2023-10-09T05:42:47;100824.88;;;2.98;72.24
30949;BME280;17637;51.984;21.208;2023-10-09T05:45:29;100812.28;;;2.90;71.99
30949;BME280;17637;51.984;21.208;2023-10-09T05:48:20;100804.38;;;2.97;71.50
30949;BME280;17637;51.984;21.208;2023-10-09T05:50:52;100816.84;;;3.07;71.17
30949;BME280;17637;51.984;21.208;2023-10-09T05:53:44;100821.84;;;3.12;71.66
30949;BME280;17637;51.984;21.208;2023-10-09T05:56:15;100815.22;;;3.05;72.18
30949;BME280;17637;51.984;21.208;2023-10-09T05:59:06;100807.63;;;3.02;71.98
30949;BME280;17637;51.984;21.208;2023-10-09T06:01:57;100817.34;;;3.19;71.93
30949;BME280;17637;51.984;21.208;2023-10-09T06:04:34;100809.56;;;3.20;71.60
30949;BME280;17637;51.984;21.208;2023-10-09T06:07:26;100809.50;;;3.23;71.17
30949;BME280;17637;51.984;21.208;2023-10-09T06:10:18;100788.09;;;3.23;71.76
30949;BME280;17637;51.984;21.208;2023-10-09T06:12:51;100808.75;;;3.45;71.43
30949;BME280;17637;51.984;21.208;2023-10-09T06:15:29;100812.78;;;3.52;70.91
30949;BME280;17637;51.984;21.208;2023-10-09T06:18:20;100789.19;;;3.41;70.89
30949;BME280;17637;51.984;21.208;2023-10-09T06:21:04;100811.63;;;3.61;71.01
30949;BME280;17637;51.984;21.208;2023-10-09T06:23:41;100785.72;;;3.42;71.25
30949;BME280;17637;51.984;21.208;2023-10-09T06:26:42;100810.50;;;3.68;70.58
30949;BME280;17637;51.984;21.208;2023-10-09T06:29:43;100791.00;;;3.63;69.91
30949;BME280;17637;51.984;21.208;2023-10-09T06:32:18;100801.72;;;3.74;70.50
30949;BME280;17637;51.984;21.208;2023-10-09T06:34:52;100790.69;;;3.72;70.42
30949;BME280;17637;51.984;21.208;2023-10-09T06:37:24;100804.91;;;3.81;70.52
30949;BME280;17637;51.984;21.208;2023-10-09T06:39:56;100783.44;;;3.82;70.00
30949;BME280;17637;51.984;21.208;2023-10-09T06:42:28;100784.34;;;3.81;70.62
30949;BME280;17637;51.984;21.208;2023-10-09T06:45:12;100810.34;;;3.97;70.88
30949;BME280;17637;51.984;21.208;2023-10-09T06:47:52;100812.91;;;3.97;70.37
30949;BME280;17637;51.984;21.208;2023-10-09T06:50:41;100794.09;;;3.96;70.03
30949;BME280;17637;51.984;21.208;2023-10-09T06:53:35;100798.31;;;4.21;69.84
30949;BME280;17637;51.984;21.208;2023-10-09T06:56:27;100807.63;;;4.23;68.81
30949;BME280;17637;51.984;21.208;2023-10-09T06:59:05;100782.50;;;4.30;68.94
30949;BME280;17637;51.984;21.208;2023-10-09T07:01:56;100781.56;;;4.33;68.61
30949;BME280;17637;51.984;21.208;2023-10-09T07:04:54;100781.91;;;4.46;69.30
30949;BME280;17637;51.984;21.208;2023-10-09T07:07:27;100794.88;;;4.65;68.55
30949;BME280;17637;51.984;21.208;2023-10-09T07:09:58;100805.97;;;4.67;68.68
30949;BME280;17637;51.984;21.208;2023-10-09T07:13:02;100810.63;;;4.57;67.99
30949;BME280;17637;51.984;21.208;2023-10-09T07:15:42;100808.59;;;4.87;68.55
30949;BME280;17637;51.984;21.208;2023-10-09T07:18:33;100786.69;;;4.77;67.34
30949;BME280;17637;51.984;21.208;2023-10-09T07:21:21;100791.63;;;5.02;68.32
30949;BME280;17637;51.984;21.208;2023-10-09T07:23:59;100791.31;;;5.10;67.55
30949;BME280;17637;51.984;21.208;2023-10-09T07:26:46;100797.75;;;5.20;67.01
30949;BME280;17637;51.984;21.208;2023-10-09T07:29:25;100809.69;;;5.44;67.08
30949;BME280;17637;51.984;21.208;2023-10-09T07:31:59;100811.28;;;5.46;66.98
30949;BME280;17637;51.984;21.208;2023-10-09T07:34:44;100798.91;;;5.54;66.70
30949;BME280;17637;51.984;21.208;2023-10-09T07:37:26;100786.28;;;5.48;67.12
30949;BME280;17637;51.984;21.208;2023-10-09T07:40:06;100807.53;;;5.53;65.92
30949;BME280;17637;51.984;21.208;2023-10-09T07:42:39;100818.28;;;5.63;64.80
30949;BME280;17637;51.984;21.208;2023-10-09T07:45:11;100822.78;;;5.98;64.95
30949;BME280;17637;51.984;21.208;2023-10-09T07:47:52;100794.09;;;6.24;64.61
30949;BME280;17637;51.984;21.208;2023-10-09T07:50:38;100798.84;;;6.51;63.24
30949;BME280;17637;51.984;21.208;2023-10-09T07:53:13;100797.63;;;6.59;62.60
30949;BME280;17637;51.984;21.208;2023-10-09T07:55:52;100800.66;;;6.49;63.39
30949;BME280;17637;51.984;21.208;2023-10-09T07:58:28;100792.09;;;6.66;62.84
30949;BME280;17637;51.984;21.208;2023-10-09T08:01:00;100808.91;;;6.75;61.97
30949;BME280;17637;51.984;21.208;2023-10-09T08:03:38;100805.69;;;6.70;61.31
30949;BME280;17637;51.984;21.208;2023-10-09T08:06:10;100805.72;;;6.87;61.37
30949;BME280;17637;51.984;21.208;2023-10-09T08:09:01;100798.06;;;6.86;60.58
30949;BME280;17637;51.984;21.208;2023-10-09T08:11:53;100796.47;;;6.83;60.77
30949;BME280;17637;51.984;21.208;2023-10-09T08:15:04;100796.31;;;7.04;61.58
30949;BME280;17637;51.984;21.208;2023-10-09T08:17:56;100802.81;;;7.11;61.11
30949;BME280;17637;51.984;21.208;2023-10-09T08:20:36;100803.41;;;7.51;61.04
30949;BME280;17637;51.984;21.208;2023-10-09T08:23:27;100798.56;;;7.61;60.34
30949;BME280;17637;51.984;21.208;2023-10-09T08:26:05;100780.41;;;7.79;59.28
30949;BME280;17637;51.984;21.208;2023-10-09T08:28:45;100792.25;;;7.83;58.94
30949;BME280;17637;51.984;21.208;2023-10-09T08:31:18;100788.66;;;7.85;60.59
30949;BME280;17637;51.984;21.208;2023-10-09T08:33:51;100773.91;;;8.03;60.05
30949;BME280;17637;51.984;21.208;2023-10-09T08:36:32;100769.41;;;8.07;59.34
30949;BME280;17637;51.984;21.208;2023-10-09T08:39:08;100775.22;;;8.27;59.47
30949;BME280;17637;51.984;21.208;2023-10-09T08:41:55;100777.06;;;8.57;58.27
30949;BME280;17637;51.984;21.208;2023-10-09T08:44:30;100770.88;;;8.59;59.12
30949;BME280;17637;51.984;21.208;2023-10-09T08:47:04;100745.22;;;8.54;57.51
30949;BME280;17637;51.984;21.208;2023-10-09T08:49:37;100749.19;;;8.76;58.02
30949;BME280;17637;51.984;21.208;2023-10-09T08:52:09;100755.13;;;8.78;57.83
30949;BME280;17637;51.984;21.208;2023-10-09T08:54:43;100736.03;;;8.79;57.20
30949;BME280;17637;51.984;21.208;2023-10-09T08:57:15;100742.03;;;9.10;56.27
30949;BME280;17637;51.984;21.208;2023-10-09T08:59:50;100745.44;;;9.11;55.61
30949;BME280;17637;51.984;21.208;2023-10-09T09:02:22;100742.88;;;9.40;56.50
30949;BME280;17637;51.984;21.208;2023-10-09T09:04:54;100740.81;;;9.30;53.64
30949;BME280;17637;51.984;21.208;2023-10-09T09:07:28;100730.84;;;9.24;53.46
30949;BME280;17637;51.984;21.208;2023-10-09T09:10:03;100705.81;;;9.38;54.29
30949;BME280;17637;51.984;21.208;2023-10-09T09:12:49;100725.97;;;9.61;54.65
30949;BME280;17637;51.984;21.208;2023-10-09T09:15:27;100714.41;;;9.67;53.40
30949;BME280;17637;51.984;21.208;2023-10-09T09:18:07;100730.13;;;9.64;50.71
30949;BME280;17637;51.984;21.208;2023-10-09T09:20:43;100718.72;;;9.81;53.36
30949;BME280;17637;51.984;21.208;2023-10-09T09:23:18;100723.66;;;9.71;50.95
30949;BME280;17637;51.984;21.208;2023-10-09T09:25:55;100740.50;;;9.78;51.92
30949;BME280;17637;51.984;21.208;2023-10-09T09:28:51;100727.81;;;9.74;52.14
30949;BME280;17637;51.984;21.208;2023-10-09T09:31:26;100716.06;;;9.68;51.63
30949;BME280;17637;51.984;21.208;2023-10-09T09:33:58;100705.97;;;9.91;52.77
30949;BME280;17637;51.984;21.208;2023-10-09T09:36:34;100707.69;;;10.05;52.49
30949;BME280;17637;51.984;21.208;2023-10-09T09:39:06;100697.09;;;9.80;53.05
30949;BME280;17637;51.984;21.208;2023-10-09T09:41:50;100700.34;;;10.11;52.69
30949;BME280;17637;51.984;21.208;2023-10-09T09:44:23;100677.25;;;9.94;50.18
30949;BME280;17637;51.984;21.208;2023-10-09T09:47:02;100707.25;;;9.98;52.27
30949;BME280;17637;51.984;21.208;2023-10-09T09:49:41;100684.81;;;9.97;51.82
30949;BME280;17637;51.984;21.208;2023-10-09T09:52:13;100692.91;;;10.20;51.67
30949;BME280;17637;51.984;21.208;2023-10-09T09:54:49;100674.38;;;10.11;52.15
30949;BME280;17637;51.984;21.208;2023-10-09T09:57:24;100651.97;;;10.10;52.03
30949;BME280;17637;51.984;21.208;2023-10-09T09:59:59;100674.19;;;10.14;52.18
30949;BME280;17637;51.984;21.208;2023-10-09T10:02:36;100679.00;;;10.21;51.90
30949;BME280;17637;51.984;21.208;2023-10-09T10:05:11;100661.03;;;10.30;52.08
30949;BME280;17637;51.984;21.208;2023-10-09T10:07:47;100664.88;;;10.25;50.96
30949;BME280;17637;51.984;21.208;2023-10-09T10:10:42;100647.56;;;10.38;49.53
30949;BME280;17637;51.984;21.208;2023-10-09T10:16:15;100647.31;;;10.28;51.13
30949;BME280;17637;51.984;21.208;2023-10-09T10:19:09;100627.81;;;10.36;50.45
30949;BME280;17637;51.984;21.208;2023-10-09T10:21:48;100642.84;;;10.30;50.95
30949;BME280;17637;51.984;21.208;2023-10-09T10:27:25;100621.88;;;10.33;50.25
30949;BME280;17637;51.984;21.208;2023-10-09T10:32:57;100630.41;;;10.36;51.80
30949;BME280;17637;51.984;21.208;2023-10-09T10:35:29;100629.56;;;10.35;50.50
30949;BME280;17637;51.984;21.208;2023-10-09T10:38:28;100622.78;;;10.20;49.86
30949;BME280;17637;51.984;21.208;2023-10-09T10:41:14;100617.66;;;10.05;50.62
30949;BME280;17637;51.984;21.208;2023-10-09T10:43:49;100611.53;;;9.66;51.98
30949;BME280;17637;51.984;21.208;2023-10-09T10:46:23;100604.66;;;9.65;51.32
30949;BME280;17637;51.984;21.208;2023-10-09T10:48:59;100623.09;;;9.33;51.78
30949;BME280;17637;51.984;21.208;2023-10-09T10:51:35;100602.91;;;9.24;52.65
30949;BME280;17637;51.984;21.208;2023-10-09T10:54:09;100609.09;;;9.50;52.70
30949;BME280;17637;51.984;21.208;2023-10-09T10:57:00;100600.44;;;9.49;53.08
30949;BME280;17637;51.984;21.208;2023-10-09T10:59:39;100596.00;;;9.10;53.80
30949;BME280;17637;51.984;21.208;2023-10-09T11:02:13;100602.88;;;9.38;53.42
30949;BME280;17637;51.984;21.208;2023-10-09T11:04:54;100597.94;;;9.48;54.97
30949;BME280;17637;51.984;21.208;2023-10-09T11:07:28;100574.22;;;9.54;53.91
30949;BME280;17637;51.984;21.208;2023-10-09T11:10:00;100580.00;;;9.72;55.72
30949;BME280;17637;51.984;21.208;2023-10-09T11:15:12;100589.56;;;9.72;54.10
30949;BME280;17637;51.984;21.208;2023-10-09T11:18:08;100593.50;;;9.77;55.03
30949;BME280;17637;51.984;21.208;2023-10-09T11:20:41;100570.59;;;9.57;54.71
30949;BME280;17637;51.984;21.208;2023-10-09T11:23:25;100555.03;;;9.29;54.94
30949;BME280;17637;51.984;21.208;2023-10-09T11:26:07;100578.22;;;9.45;55.48
30949;BME280;17637;51.984;21.208;2023-10-09T11:29:13;100580.38;;;9.39;56.47
30949;BME280;17637;51.984;21.208;2023-10-09T11:32:04;100571.09;;;9.49;55.90
30949;BME280;17637;51.984;21.208;2023-10-09T11:34:47;100575.91;;;9.41;56.70
30949;BME280;17637;51.984;21.208;2023-10-09T11:37:30;100578.06;;;9.34;56.95
30949;BME280;17637;51.984;21.208;2023-10-09T11:40:02;100551.44;;;9.17;56.46
30949;BME280;17637;51.984;21.208;2023-10-09T11:42:36;100579.78;;;9.21;57.02
30949;BME280;17637;51.984;21.208;2023-10-09T11:45:24;100579.03;;;9.18;57.29
30949;BME280;17637;51.984;21.208;2023-10-09T11:48:16;100563.28;;;9.22;58.04
30949;BME280;17637;51.984;21.208;2023-10-09T11:50:53;100545.38;;;9.04;58.10
30949;BME280;17637;51.984;21.208;2023-10-09T11:53:45;100571.69;;;9.40;58.38
30949;BME280;17637;51.984;21.208;2023-10-09T11:56:26;100569.53;;;9.46;58.45
30949;BME280;17637;51.984;21.208;2023-10-09T11:58:59;100560.06;;;9.18;58.16
30949;BME280;17637;51.984;21.208;2023-10-09T12:01:36;100569.09;;;9.25;58.67
30949;BME280;17637;51.984;21.208;2023-10-09T12:04:14;100575.31;;;9.37;58.60
30949;BME280;17637;51.984;21.208;2023-10-09T12:06:47;100561.09;;;9.15;58.09
30949;BME280;17637;51.984;21.208;2023-10-09T12:09:21;100562.44;;;9.21;58.68
30949;BME280;17637;51.984;21.208;2023-10-09T12:11:55;100555.72;;;9.04;58.12
30949;BME280;17637;51.984;21.208;2023-10-09T12:14:35;100549.03;;;9.14;58.76
30949;BME280;17637;51.984;21.208;2023-10-09T12:17:09;100558.44;;;9.02;58.19
30949;BME280;17637;51.984;21.208;2023-10-09T12:19:41;100564.22;;;9.21;58.62
30949;BME280;17637;51.984;21.208;2023-10-09T12:22:13;100535.59;;;9.22;58.72
30949;BME280;17637;51.984;21.208;2023-10-09T12:24:48;100544.84;;;9.26;58.10
30949;BME280;17637;51.984;21.208;2023-10-09T12:27:20;100563.69;;;9.43;59.13
30949;BME280;17637;51.984;21.208;2023-10-09T12:29:51;100525.13;;;9.24;58.36
30949;BME280;17637;51.984;21.208;2023-10-09T12:32:23;100548.56;;;9.49;58.42
30949;BME280;17637;51.984;21.208;2023-10-09T12:34:55;100544.22;;;9.50;58.94
30949;BME280;17637;51.984;21.208;2023-10-09T12:37:27;100530.25;;;9.38;58.49
30949;BME280;17637;51.984;21.208;2023-10-09T12:40:00;100542.34;;;9.52;57.58
30949;BME280;17637;51.984;21.208;2023-10-09T12:42:36;100538.25;;;9.35;58.13
30949;BME280;17637;51.984;21.208;2023-10-09T12:45:08;100545.50;;;9.30;58.76
30949;BME280;17637;51.984;21.208;2023-10-09T12:47:41;100559.00;;;9.35;57.36
30949;BME280;17637;51.984;21.208;2023-10-09T12:50:14;100549.53;;;9.34;57.61
30949;BME280;17637;51.984;21.208;2023-10-09T12:52:46;100559.69;;;9.24;58.79
30949;BME280;17637;51.984;21.208;2023-10-09T12:55:22;100547.09;;;9.18;58.47
30949;BME280;17637;51.984;21.208;2023-10-09T12:58:03;100518.28;;;8.81;59.39
30949;BME280;17637;51.984;21.208;2023-10-09T13:00:39;100522.06;;;8.90;60.36
30949;BME280;17637;51.984;21.208;2023-10-09T13:03:31;100543.34;;;8.95;60.20
30949;BME280;17637;51.984;21.208;2023-10-09T13:06:04;100542.97;;;8.86;60.87
30949;BME280;17637;51.984;21.208;2023-10-09T13:08:42;100526.72;;;8.84;60.70
30949;BME280;17637;51.984;21.208;2023-10-09T13:11:17;100537.38;;;9.07;59.72
30949;BME280;17637;51.984;21.208;2023-10-09T13:13:49;100551.50;;;8.74;60.41
30949;BME280;17637;51.984;21.208;2023-10-09T13:16:23;100545.56;;;8.86;59.99
30949;BME280;17637;51.984;21.208;2023-10-09T13:18:56;100544.00;;;8.84;60.72
30949;BME280;17637;51.984;21.208;2023-10-09T13:21:30;100517.75;;;8.47;61.27
30949;BME280;17637;51.984;21.208;2023-10-09T13:24:03;100496.84;;;8.50;61.13
30949;BME280;17637;51.984;21.208;2023-10-09T13:26:36;100513.75;;;8.84;60.58
30949;BME280;17637;51.984;21.208;2023-10-09T13:29:07;100514.22;;;8.62;61.77
30949;BME280;17637;51.984;21.208;2023-10-09T13:31:41;100495.63;;;8.56;61.77
30949;BME280;17637;51.984;21.208;2023-10-09T13:34:18;100523.94;;;8.73;61.27
30949;BME280;17637;51.984;21.208;2023-10-09T13:36:50;100513.94;;;8.67;61.78
30949;BME280;17637;51.984;21.208;2023-10-09T13:39:25;100518.75;;;8.73;61.48
30949;BME280;17637;51.984;21.208;2023-10-09T13:41:58;100509.75;;;8.79;61.73
30949;BME280;17637;51.984;21.208;2023-10-09T13:44:32;100515.38;;;8.85;61.98
30949;BME280;17637;51.984;21.208;2023-10-09T13:47:05;100478.78;;;8.48;62.04
30949;BME280;17637;51.984;21.208;2023-10-09T13:49:38;100510.50;;;8.66;61.87
30949;BME280;17637;51.984;21.208;2023-10-09T13:52:14;100478.41;;;8.69;62.23
30949;BME280;17637;51.984;21.208;2023-10-09T13:54:49;100493.03;;;8.84;62.85
30949;BME280;17637;51.984;21.208;2023-10-09T13:57:22;100471.09;;;8.61;62.59
30949;BME280;17637;51.984;21.208;2023-10-09T14:00:03;100471.94;;;8.62;62.38